Aviation Digital Data Service (ADDS)

Output produced by METARs form (1646 UTC 30 October 2020)
found at http://www.aviationweather.gov/metar/data/
 
KCAE 301556Z 33008KT 280V360 10SM CLR 20/09 A3001 RMK AO2 SLP161 T02000089
KCAE 301503Z 3015/3112 32010KT P6SM SKC 
     FM302300 01007KT P6SM SKC 
     FM310600 04004KT P6SM SKC